createdAt,value
2023-12-29T00:04:31.846Z,93627.75
2023-12-29T00:06:03.920Z,93629.66
2023-12-29T00:07:36.008Z,93638.66
2023-12-29T00:09:08.586Z,93637.81
2023-12-29T00:10:40.325Z,93635.66
2023-12-29T00:12:12.005Z,93637.22
2023-12-29T00:13:43.581Z,93634.31
2023-12-29T00:15:18.336Z,93637.22
2023-12-29T00:16:49.972Z,93637.47
2023-12-29T00:18:21.898Z,93629.72
2023-12-29T00:19:57.022Z,93632.66
2023-12-29T00:21:28.757Z,93637.13
2023-12-29T00:23:00.496Z,93640.78
2023-12-29T00:24:35.324Z,93637.03
2023-12-29T00:26:09.138Z,93644.44
2023-12-29T00:27:42.025Z,93641.47
2023-12-29T00:29:13.817Z,93645.75
2023-12-29T00:30:56.742Z,93649.75
2023-12-29T00:32:32.439Z,93653.16
2023-12-29T00:34:04.162Z,93651.31
2023-12-29T00:35:38.248Z,93654.78
2023-12-29T00:37:10.397Z,93654.72
2023-12-29T00:38:42.082Z,93650.97
2023-12-29T00:40:13.970Z,93654.63
2023-12-29T00:41:45.837Z,93653.22
2023-12-29T00:43:19.154Z,93650.75
2023-12-29T00:44:50.905Z,93648.53
2023-12-29T00:46:22.463Z,93640.44
2023-12-29T00:47:54.671Z,93637.47
2023-12-29T00:49:26.765Z,93647.25
2023-12-29T00:50:58.384Z,93643.19
2023-12-29T00:52:30.066Z,93634.91
2023-12-29T00:54:01.727Z,93637.25
2023-12-29T00:55:33.545Z,93634.28
2023-12-29T00:57:05.334Z,93633.72
2023-12-29T00:58:36.880Z,93637.44
2023-12-29T01:00:09.050Z,93638.25
2023-12-29T01:01:40.738Z,93639.63
2023-12-29T01:03:12.452Z,93642.81
2023-12-29T01:04:44.354Z,93636.19
2023-12-29T01:06:16.099Z,93634.91
2023-12-29T01:07:47.723Z,93643.44
2023-12-29T01:09:19.466Z,93642.38
2023-12-29T01:10:51.117Z,93640.00
2023-12-29T01:12:23.449Z,93645.34
2023-12-29T01:13:55.159Z,93645.66
2023-12-29T01:15:26.733Z,93652.81
2023-12-29T01:16:59.886Z,93643.72
2023-12-29T01:18:33.727Z,93644.50
2023-12-29T01:20:06.022Z,93647.06
2023-12-29T01:21:40.693Z,93649.94
2023-12-29T01:23:12.340Z,93650.91
2023-12-29T01:24:46.448Z,93645.28
2023-12-29T01:26:18.426Z,93639.66
2023-12-29T01:27:50.084Z,93640.47
2023-12-29T01:29:21.710Z,93652.72
2023-12-29T01:30:53.514Z,93645.06
2023-12-29T01:32:25.595Z,93637.13
2023-12-29T01:33:59.305Z,93639.06
2023-12-29T01:35:31.330Z,93643.06
2023-12-29T01:37:04.999Z,93637.47
2023-12-29T01:38:36.840Z,93641.19
2023-12-29T01:40:08.777Z,93638.03
2023-12-29T01:41:40.922Z,93641.50
2023-12-29T01:43:12.810Z,93634.34
2023-12-29T01:44:45.574Z,93631.63
2023-12-29T01:46:18.652Z,93630.81
2023-12-29T01:47:51.760Z,93629.47
2023-12-29T01:49:24.164Z,93628.59
2023-12-29T01:50:55.846Z,93629.91
2023-12-29T02:22:42.519Z,93608.56
2023-12-29T02:24:14.271Z,93608.31
2023-12-29T02:25:45.909Z,93611.50
2023-12-29T02:27:17.718Z,93608.13
2023-12-29T02:28:52.050Z,93607.06
2023-12-29T02:30:23.764Z,93594.56
2023-12-29T02:31:55.426Z,93604.66
2023-12-29T02:33:27.521Z,93599.53
2023-12-29T02:34:59.760Z,93604.06
2023-12-29T02:36:31.724Z,93601.34
2023-12-29T02:38:03.558Z,93597.28
2023-12-29T02:39:35.345Z,93596.91
2023-12-29T02:41:07.555Z,93594.13
2023-12-29T02:42:39.403Z,93584.97
2023-12-29T02:44:11.625Z,93590.25
2023-12-29T02:45:43.418Z,93589.63
2023-12-29T02:47:15.510Z,93590.88
2023-12-29T02:48:49.498Z,93592.41
2023-12-29T02:50:21.473Z,93591.56
2023-12-29T02:51:53.466Z,93591.25
2023-12-29T02:53:25.116Z,93586.97
2023-12-29T02:54:56.927Z,93584.56
2023-12-29T02:56:28.657Z,93584.56
2023-12-29T02:58:00.778Z,93583.50
2023-12-29T02:59:32.796Z,93583.50
2023-12-29T03:01:04.609Z,93577.94
2023-12-29T03:02:36.553Z,93582.22
2023-12-29T03:04:08.699Z,93573.19
2023-12-29T03:05:40.391Z,93572.16
2023-12-29T03:07:12.378Z,93563.84
2023-12-29T03:08:44.553Z,93553.19
2023-12-29T03:10:17.621Z,93560.59
2023-12-29T03:11:49.308Z,93549.63
2023-12-29T03:13:21.046Z,93548.03
2023-12-29T03:14:52.687Z,93549.31
2023-12-29T03:16:24.279Z,93541.34
2023-12-29T03:17:55.962Z,93529.38
2023-12-29T03:19:28.801Z,93532.59
2023-12-29T03:21:00.442Z,93533.13
2023-12-29T03:22:32.087Z,93532.59
2023-12-29T03:24:03.924Z,93526.22
2023-12-29T03:25:35.496Z,93523.25
2023-12-29T03:27:07.150Z,93522.69
2023-12-29T03:28:39.863Z,93519.25
2023-12-29T03:30:12.002Z,93507.81
2023-12-29T03:31:43.886Z,93514.50
2023-12-29T03:33:16.368Z,93514.72
2023-12-29T03:34:48.558Z,93512.63
2023-12-29T03:36:20.284Z,93520.09
2023-12-29T03:37:52.084Z,93512.38
2023-12-29T03:39:24.752Z,93524.09
2023-12-29T03:40:57.376Z,93531.00
2023-12-29T03:42:29.073Z,93535.19
2023-12-29T03:44:00.821Z,93533.50
2023-12-29T03:45:32.842Z,93534.25
2023-12-29T03:47:04.497Z,93532.88
2023-12-29T03:48:36.259Z,93527.81
2023-12-29T03:50:08.363Z,93532.88
2023-12-29T03:51:40.186Z,93526.78
2023-12-29T03:53:11.832Z,93533.13
2023-12-29T03:54:43.426Z,93535.72
2023-12-29T03:56:18.121Z,93543.88
2023-12-29T03:57:49.835Z,93546.13
2023-12-29T03:59:21.474Z,93548.97
2023-12-29T04:00:53.312Z,93554.53
2023-12-29T04:02:25.192Z,93543.03
2023-12-29T04:03:56.933Z,93552.53
2023-12-29T04:05:28.627Z,93554.63
2023-12-29T04:07:00.335Z,93547.84
2023-12-29T04:08:33.728Z,93547.78
2023-12-29T04:10:05.655Z,93550.63
2023-12-29T04:11:37.223Z,93538.31
2023-12-29T04:13:08.933Z,93540.63
2023-12-29T04:14:40.553Z,93539.03
2023-12-29T04:16:12.341Z,93544.91
2023-12-29T04:17:44.067Z,93551.56
2023-12-29T04:19:16.465Z,93548.69
2023-12-29T04:20:48.498Z,93547.88
2023-12-29T04:22:20.143Z,93539.34
2023-12-29T04:23:51.953Z,93537.25
2023-12-29T04:25:23.640Z,93536.56
2023-12-29T04:26:55.208Z,93537.91
2023-12-29T04:28:26.837Z,93541.13
2023-12-29T04:29:58.586Z,93537.75
2023-12-29T04:31:30.499Z,93547.06
2023-12-29T04:33:02.746Z,93550.59
2023-12-29T04:34:34.498Z,93551.97
2023-12-29T04:36:06.568Z,93542.97
2023-12-29T04:37:38.682Z,93549.31
2023-12-29T04:39:10.853Z,93550.03
2023-12-29T04:40:42.732Z,93548.66
2023-12-29T04:42:14.519Z,93548.66
2023-12-29T04:43:51.317Z,93547.84
2023-12-29T04:45:22.863Z,93548.13
2023-12-29T04:46:54.527Z,93549.47
2023-12-29T04:48:28.808Z,93561.41
2023-12-29T04:50:00.750Z,93563.72
2023-12-29T04:51:33.293Z,93558.09
2023-12-29T04:53:05.157Z,93563.38
2023-12-29T04:54:36.828Z,93563.91
2023-12-29T04:56:08.518Z,93556.88
2023-12-29T04:57:40.199Z,93561.84
2023-12-29T04:59:11.869Z,93560.75
2023-12-29T05:00:43.561Z,93564.13
2023-12-29T05:02:15.198Z,93561.94
2023-12-29T05:03:46.936Z,93559.78
2023-12-29T05:05:18.951Z,93563.47
2023-12-29T05:06:50.813Z,93561.88
2023-12-29T05:08:22.416Z,93564.75
2023-12-29T05:09:54.143Z,93554.63
2023-12-29T05:11:25.799Z,93565.56
2023-12-29T05:12:57.441Z,93564.53
2023-12-29T05:14:29.959Z,93562.00
2023-12-29T05:16:01.864Z,93560.56
2023-12-29T05:17:33.874Z,93557.75
2023-12-29T05:19:05.624Z,93557.56
2023-12-29T05:20:38.214Z,93568.56
2023-12-29T05:22:13.023Z,93553.59
2023-12-29T05:23:45.168Z,93556.41
2023-12-29T05:25:16.961Z,93555.47
2023-12-29T05:26:48.682Z,93549.88
2023-12-29T05:28:20.470Z,93546.66
2023-12-29T05:29:52.192Z,93550.69
2023-12-29T05:31:24.413Z,93551.13
2023-12-29T05:32:56.167Z,93552.41
2023-12-29T05:34:27.862Z,93545.03
2023-12-29T05:36:00.286Z,93546.88
2023-12-29T05:37:31.836Z,93550.56
2023-12-29T05:39:03.759Z,93544.69
2023-12-29T05:40:35.398Z,93551.84
2023-12-29T05:42:07.194Z,93549.41
2023-12-29T05:43:38.916Z,93546.47
2023-12-29T05:45:10.690Z,93549.66
2023-12-29T05:46:45.242Z,93545.41
2023-12-29T05:48:17.142Z,93554.94
2023-12-29T05:49:49.139Z,93551.03
2023-12-29T05:56:50.756Z,93553.22
2023-12-29T05:58:22.760Z,93551.59
2023-12-29T05:59:54.418Z,93551.03
2023-12-29T06:01:26.254Z,93551.75
2023-12-29T06:02:59.581Z,93553.25
2023-12-29T06:04:31.253Z,93549.00
2023-12-29T06:06:03.068Z,93544.16
2023-12-29T06:07:35.215Z,93548.19
2023-12-29T06:09:07.158Z,93546.56
2023-12-29T06:10:39.069Z,93542.88
2023-12-29T06:12:10.668Z,93543.69
2023-12-29T06:13:42.537Z,93543.69
2023-12-29T06:15:17.200Z,93535.19
2023-12-29T06:16:49.889Z,93540.25
2023-12-29T06:18:21.555Z,93534.72
2023-12-29T06:19:53.989Z,93537.94
2023-12-29T06:21:26.022Z,93536.66
2023-12-29T06:22:58.356Z,93539.31
2023-12-29T06:24:29.993Z,93529.25
2023-12-29T06:26:01.646Z,93528.00
2023-12-29T06:27:36.004Z,93525.09
2023-12-29T06:29:07.861Z,93526.25
2023-12-29T06:30:39.591Z,93526.09
2023-12-29T06:32:11.371Z,93518.00
2023-12-29T06:33:43.956Z,93523.38
2023-12-29T06:35:15.978Z,93522.91
2023-12-29T06:36:47.579Z,93516.34
2023-12-29T06:38:19.283Z,93519.06
2023-12-29T06:39:51.080Z,93523.91
2023-12-29T06:41:23.041Z,93517.31
2023-12-29T06:42:54.902Z,93521.81
2023-12-29T06:44:26.721Z,93521.09
2023-12-29T06:45:58.397Z,93516.13
2023-12-29T06:47:30.316Z,93512.25
2023-12-29T06:49:02.462Z,93516.09
2023-12-29T06:50:34.395Z,93515.72
2023-12-29T06:52:06.303Z,93517.63
2023-12-29T06:53:37.965Z,93511.06
2023-12-29T06:55:09.924Z,93512.34
2023-12-29T06:56:41.666Z,93517.41
2023-12-29T06:58:13.371Z,93519.59
2023-12-29T06:59:45.228Z,93519.09
2023-12-29T07:01:17.480Z,93523.38
2023-12-29T07:02:49.571Z,93524.00
2023-12-29T07:04:21.361Z,93517.72
2023-12-29T07:05:53.170Z,93522.28
2023-12-29T07:07:25.408Z,93527.50
2023-12-29T07:08:57.054Z,93521.88
2023-12-29T07:10:28.716Z,93522.31
2023-12-29T07:12:00.397Z,93520.59
2023-12-29T07:13:32.456Z,93511.19
2023-12-29T07:15:04.423Z,93509.22
2023-12-29T07:16:36.708Z,93519.16
2023-12-29T07:18:09.981Z,93516.88
2023-12-29T07:19:42.598Z,93519.94
2023-12-29T07:21:18.131Z,93520.91
2023-12-29T07:22:51.383Z,93532.56
2023-12-29T07:24:23.063Z,93526.31
2023-12-29T07:25:54.777Z,93523.84
2023-12-29T07:27:26.491Z,93525.28
2023-12-29T07:28:58.470Z,93520.38
2023-12-29T07:30:30.378Z,93527.16
2023-12-29T07:32:02.094Z,93525.88
2023-12-29T07:33:33.868Z,93539.13
2023-12-29T07:35:06.242Z,93537.81
2023-12-29T07:36:41.810Z,93546.97
2023-12-29T07:38:14.099Z,93544.91
2023-12-29T07:39:48.822Z,93551.13
2023-12-29T07:41:22.412Z,93543.41
2023-12-29T07:42:54.224Z,93546.81
2023-12-29T07:44:25.894Z,93547.09
2023-12-29T07:45:57.743Z,93537.59
2023-12-29T07:47:29.475Z,93550.50
2023-12-29T07:49:01.470Z,93542.47
2023-12-29T07:50:33.230Z,93541.34
2023-12-29T07:52:05.011Z,93538.16
2023-12-29T07:53:36.942Z,93533.63
2023-12-29T07:55:08.717Z,93536.03
2023-12-29T07:56:40.581Z,93533.69
2023-12-29T07:58:12.446Z,93530.84
2023-12-29T07:59:44.263Z,93539.38
2023-12-29T08:01:16.299Z,93536.00
2023-12-29T08:02:47.953Z,93537.59
2023-12-29T08:04:19.883Z,93541.63
2023-12-29T08:05:51.824Z,93541.41
2023-12-29T08:07:23.811Z,93543.22
2023-12-29T08:08:55.634Z,93549.31
2023-12-29T08:10:27.299Z,93550.44
2023-12-29T08:11:58.975Z,93554.47
2023-12-29T08:13:31.850Z,93552.84
2023-12-29T08:15:07.662Z,93546.50
2023-12-29T08:16:41.585Z,93529.53
2023-12-29T08:18:13.518Z,93537.09
2023-12-29T08:19:45.194Z,93538.31
2023-12-29T08:21:20.200Z,93533.97
2023-12-29T08:22:51.898Z,93543.19
2023-12-29T08:24:23.550Z,93544.19
2023-12-29T08:25:57.491Z,93537.72
2023-12-29T08:27:29.991Z,93543.84
2023-12-29T08:29:01.851Z,93547.44
2023-12-29T08:30:36.073Z,93549.88
2023-12-29T08:32:08.208Z,93555.66
2023-12-29T08:33:40.207Z,93551.03
2023-12-29T08:35:12.057Z,93557.28
2023-12-29T08:36:43.890Z,93553.53
2023-12-29T08:38:15.558Z,93555.34
2023-12-29T08:39:48.224Z,93556.91
2023-12-29T08:41:19.991Z,93548.19
2023-12-29T08:42:51.632Z,93544.28
2023-12-29T08:44:23.241Z,93547.81
2023-12-29T08:45:55.541Z,93546.81
2023-12-29T08:47:27.344Z,93545.50
2023-12-29T08:48:59.131Z,93545.81
2023-12-29T08:50:30.867Z,93542.16
2023-12-29T08:52:02.508Z,93547.03
2023-12-29T08:53:36.771Z,93552.16
2023-12-29T08:55:09.486Z,93536.00
2023-12-29T08:56:41.155Z,93544.03
2023-12-29T08:58:15.845Z,93545.66
2023-12-29T08:59:47.577Z,93547.53
2023-12-29T09:01:19.494Z,93537.41
2023-12-29T09:02:51.147Z,93545.72
2023-12-29T09:04:22.823Z,93542.50
2023-12-29T09:05:55.562Z,93546.53
2023-12-29T09:07:29.424Z,93538.25
2023-12-29T09:09:01.165Z,93531.34
2023-12-29T09:10:32.802Z,93529.72
2023-12-29T09:12:04.584Z,93531.63
2023-12-29T09:13:36.256Z,93535.66
2023-12-29T09:15:08.201Z,93535.38
2023-12-29T09:16:41.975Z,93541.28
2023-12-29T09:18:15.252Z,93531.94
2023-12-29T09:19:53.708Z,93537.00
2023-12-29T09:21:28.923Z,93540.22
2023-12-29T09:23:01.093Z,93537.84
2023-12-29T09:24:32.748Z,93533.28
2023-12-29T09:26:04.512Z,93534.38
2023-12-29T09:27:36.428Z,93528.50
2023-12-29T09:29:08.129Z,93525.53
2023-12-29T09:30:40.393Z,93521.28
2023-12-29T09:32:12.245Z,93522.59
2023-12-29T09:33:44.118Z,93522.63
2023-12-29T09:35:15.821Z,93521.00
2023-12-29T09:36:47.430Z,93520.47
2023-12-29T09:38:19.645Z,93524.75
2023-12-29T09:39:51.289Z,93517.25
2023-12-29T09:41:24.454Z,93517.53
2023-12-29T09:42:56.084Z,93510.59
2023-12-29T09:44:29.478Z,93506.84
2023-12-29T09:46:01.575Z,93505.78
2023-12-29T09:47:34.660Z,93498.81
2023-12-29T09:49:08.028Z,93492.41
2023-12-29T09:50:39.869Z,93500.16
2023-12-29T09:52:12.431Z,93496.19
2023-12-29T09:53:44.110Z,93495.34
2023-12-29T09:55:15.801Z,93487.31
2023-12-29T09:56:47.520Z,93479.28
2023-12-29T09:58:20.518Z,93481.66
2023-12-29T09:59:55.817Z,93472.78
2023-12-29T10:01:30.640Z,93468.78
2023-12-29T10:03:02.355Z,93475.69
2023-12-29T10:04:36.798Z,93475.69
2023-12-29T10:06:12.565Z,93474.00
2023-12-29T10:07:44.276Z,93468.84
2023-12-29T10:09:15.977Z,93458.94
2023-12-29T10:10:50.489Z,93467.47
2023-12-29T10:12:22.184Z,93463.44
2023-12-29T10:13:54.862Z,93456.97
2023-12-29T10:15:29.463Z,93468.25
2023-12-29T10:17:04.255Z,93456.00
2023-12-29T10:18:38.653Z,93463.75
2023-12-29T10:20:17.042Z,93460.00
2023-12-29T10:22:00.079Z,93457.06
2023-12-29T10:23:37.255Z,93449.25
2023-12-29T10:25:09.037Z,93447.63
2023-12-29T10:26:41.485Z,93451.59
2023-12-29T10:28:13.163Z,93438.53
2023-12-29T10:29:44.893Z,93444.69
2023-12-29T10:31:19.636Z,93449.75
2023-12-29T10:32:52.254Z,93440.06
2023-12-29T10:34:31.053Z,93447.81
2023-12-29T10:36:08.462Z,93440.34
2023-12-29T10:37:40.285Z,93431.19
2023-12-29T10:39:11.862Z,93431.34
2023-12-29T10:40:44.944Z,93437.69
2023-12-29T10:42:17.428Z,93428.75
2023-12-29T10:43:53.090Z,93426.47
2023-12-29T10:45:26.192Z,93421.53
2023-12-29T10:46:58.986Z,93433.16
2023-12-29T10:48:31.095Z,93423.72
2023-12-29T10:50:04.961Z,93425.75
2023-12-29T10:51:36.669Z,93417.44
2023-12-29T10:53:15.213Z,93419.25
2023-12-29T10:54:47.014Z,93414.97
2023-12-29T10:56:21.991Z,93409.09
2023-12-29T10:57:53.957Z,93409.81
2023-12-29T10:59:25.647Z,93404.38
2023-12-29T11:00:57.610Z,93399.75
2023-12-29T11:02:29.978Z,93397.69
2023-12-29T11:04:02.231Z,93402.56
2023-12-29T11:05:34.943Z,93400.25
2023-12-29T11:07:08.260Z,93390.47
2023-12-29T11:08:39.949Z,93391.84
2023-12-29T11:10:11.703Z,93385.88
2023-12-29T11:11:43.464Z,93378.47
2023-12-29T11:13:17.676Z,93381.63
2023-12-29T11:14:51.459Z,93379.47
2023-12-29T11:16:23.683Z,93375.59
2023-12-29T11:17:55.355Z,93367.31
2023-12-29T11:19:28.088Z,93367.22
2023-12-29T11:20:59.810Z,93356.81
2023-12-29T11:22:31.674Z,93347.38
2023-12-29T11:24:03.349Z,93347.94
2023-12-29T11:25:35.333Z,93345.34
2023-12-29T11:27:08.647Z,93345.44
2023-12-29T11:28:40.667Z,93341.00
2023-12-29T11:30:12.843Z,93341.56
2023-12-29T11:31:44.963Z,93340.53
2023-12-29T11:33:18.854Z,93342.09
2023-12-29T11:34:55.898Z,93340.22
2023-12-29T11:36:33.760Z,93340.56
2023-12-29T11:38:25.271Z,93338.34
2023-12-29T11:40:05.987Z,93335.66
2023-12-29T11:41:56.422Z,93337.69
2023-12-29T11:43:28.289Z,93338.34
2023-12-29T11:45:00.887Z,93330.41
2023-12-29T11:46:44.851Z,93340.13
2023-12-29T11:48:38.175Z,93337.22
2023-12-29T11:50:10.189Z,93338.22
2023-12-29T11:51:41.941Z,93327.38
2023-12-29T11:53:21.343Z,93319.25
2023-12-29T11:54:53.315Z,93329.31
2023-12-29T11:56:24.996Z,93321.97
2023-12-29T11:57:56.799Z,93323.88
2023-12-29T11:59:31.550Z,93320.19
2023-12-29T12:01:03.267Z,93312.59
2023-12-29T12:02:35.200Z,93312.69
2023-12-29T12:04:27.611Z,93318.25
2023-12-29T12:06:04.526Z,93315.53
2023-12-29T12:07:37.313Z,93313.06
2023-12-29T12:09:19.882Z,93314.13
2023-12-29T12:10:51.656Z,93313.28
2023-12-29T12:12:42.629Z,93313.25
2023-12-29T12:14:34.260Z,93312.75
2023-12-29T12:16:06.089Z,93317.00
2023-12-29T12:17:38.368Z,93316.97
2023-12-29T12:19:10.432Z,93315.19
2023-12-29T12:20:42.321Z,93319.28
2023-12-29T12:22:14.061Z,93320.81
2023-12-29T12:23:45.814Z,93318.06
2023-12-29T12:25:17.977Z,93318.19
2023-12-29T12:26:50.995Z,93311.13
2023-12-29T12:28:23.862Z,93309.38
2023-12-29T12:30:00.326Z,93308.88
2023-12-29T12:31:32.181Z,93307.28
2023-12-29T12:33:05.000Z,93315.03
2023-12-29T12:34:41.183Z,93325.28
2023-12-29T12:36:13.332Z,93316.56
2023-12-29T12:37:45.629Z,93322.16
2023-12-29T12:39:17.886Z,93319.19
2023-12-29T12:40:49.705Z,93326.78
2023-12-29T12:42:22.407Z,93325.81
2023-12-29T12:44:05.836Z,93321.38
2023-12-29T12:45:43.768Z,93317.78
2023-12-29T12:47:19.532Z,93319.03
2023-12-29T12:48:52.089Z,93320.91
2023-12-29T12:50:24.035Z,93312.69
2023-12-29T12:51:55.793Z,93317.56
2023-12-29T12:53:28.468Z,93315.44
2023-12-29T12:55:00.341Z,93311.09
2023-12-29T12:56:32.470Z,93311.44
2023-12-29T12:58:04.960Z,93310.56
2023-12-29T12:59:36.668Z,93309.91
2023-12-29T13:01:09.587Z,93311.03
2023-12-29T13:02:41.760Z,93304.78
2023-12-29T13:04:13.861Z,93305.03
2023-12-29T13:05:45.993Z,93300.06
2023-12-29T13:07:18.305Z,93306.63
2023-12-29T13:08:50.986Z,93299.13
2023-12-29T13:10:23.235Z,93306.44
2023-12-29T13:12:08.675Z,93310.88
2023-12-29T13:13:40.816Z,93305.50
2023-12-29T13:15:12.664Z,93311.28
2023-12-29T13:16:44.502Z,93314.00
2023-12-29T13:18:17.340Z,93305.31
2023-12-29T13:19:57.043Z,93306.66
2023-12-29T13:21:29.205Z,93298.88
2023-12-29T13:23:01.502Z,93303.03
2023-12-29T13:24:33.329Z,93308.06
2023-12-29T13:26:09.277Z,93306.94
2023-12-29T13:27:41.435Z,93305.00
2023-12-29T13:29:13.752Z,93310.00
2023-12-29T13:30:45.816Z,93301.50
2023-12-29T13:32:31.951Z,93296.75
2023-12-29T13:34:05.868Z,93300.59
2023-12-29T13:35:42.967Z,93302.44
2023-12-29T13:37:27.574Z,93308.56
2023-12-29T13:38:59.641Z,93301.16
2023-12-29T13:40:39.610Z,93300.28
2023-12-29T13:42:11.819Z,93302.59
2023-12-29T13:43:43.929Z,93305.56
2023-12-29T13:45:15.935Z,93304.22
2023-12-29T13:46:47.883Z,93305.59
2023-12-29T13:48:19.957Z,93306.38
2023-12-29T13:49:52.304Z,93308.09
2023-12-29T13:51:24.606Z,93308.78
2023-12-29T13:52:59.896Z,93298.69
2023-12-29T13:54:31.726Z,93303.91
2023-12-29T13:56:09.593Z,93304.91
2023-12-29T13:57:41.475Z,93303.09
2023-12-29T13:59:14.271Z,93303.44
2023-12-29T14:00:45.971Z,93301.38
2023-12-29T14:02:22.646Z,93301.81
2023-12-29T14:04:00.600Z,93307.03
2023-12-29T14:05:38.405Z,93304.28
2023-12-29T14:07:10.959Z,93308.13
2023-12-29T14:08:45.821Z,93304.28
2023-12-29T14:10:17.562Z,93301.22
2023-12-29T14:11:49.507Z,93298.84
2023-12-29T14:13:22.227Z,93302.72
2023-12-29T14:14:54.286Z,93306.97
2023-12-29T14:16:25.966Z,93305.44
2023-12-29T14:17:58.714Z,93303.84
2023-12-29T14:19:37.767Z,93310.38
2023-12-29T14:21:24.840Z,93307.19
2023-12-29T14:23:03.896Z,93308.50
2023-12-29T14:24:35.742Z,93307.81
2023-12-29T14:26:07.454Z,93302.59
2023-12-29T14:27:40.628Z,93310.44
2023-12-29T14:29:12.700Z,93311.56
2023-12-29T14:30:44.606Z,93299.13
2023-12-29T14:32:16.825Z,93305.72
2023-12-29T14:33:48.556Z,93303.66
2023-12-29T14:35:20.193Z,93309.72
2023-12-29T14:36:51.824Z,93301.44
2023-12-29T14:38:25.989Z,93303.91
2023-12-29T14:39:57.780Z,93307.78
2023-12-29T14:41:29.498Z,93303.09
2023-12-29T14:43:01.297Z,93302.19
2023-12-29T14:44:35.395Z,93298.56
2023-12-29T14:46:07.151Z,93289.44
2023-12-29T14:47:39.248Z,93290.94
2023-12-29T14:49:11.256Z,93293.72
2023-12-29T14:50:46.570Z,93296.47
2023-12-29T14:52:19.141Z,93297.28
2023-12-29T14:53:51.827Z,93295.38
2023-12-29T14:55:23.798Z,93296.22
2023-12-29T14:57:04.382Z,93285.75
2023-12-29T14:58:40.536Z,93293.53
2023-12-29T15:00:12.421Z,93294.44
2023-12-29T15:01:44.149Z,93304.88
2023-12-29T15:03:16.543Z,93299.88
2023-12-29T15:04:50.372Z,93304.63
2023-12-29T15:06:22.299Z,93303.13
2023-12-29T15:07:53.916Z,93304.34
2023-12-29T15:09:25.476Z,93305.56
2023-12-29T15:10:57.049Z,93312.63
2023-12-29T15:12:28.732Z,93309.69
2023-12-29T15:14:00.490Z,93308.34
2023-12-29T15:15:32.346Z,93314.78
2023-12-29T15:17:04.068Z,93313.09
2023-12-29T15:18:35.883Z,93318.41
2023-12-29T15:20:09.431Z,93325.84
2023-12-29T15:21:41.731Z,93333.53
2023-12-29T15:23:13.458Z,93332.34
2023-12-29T15:24:47.851Z,93326.09
2023-12-29T15:26:20.062Z,93325.53
2023-12-29T15:27:51.682Z,93322.75
2023-12-29T15:29:24.942Z,93329.63
2023-12-29T15:30:56.663Z,93326.75
2023-12-29T15:32:28.396Z,93319.09
2023-12-29T15:34:00.313Z,93325.97
2023-12-29T15:35:31.873Z,93326.06
2023-12-29T15:37:04.585Z,93327.28
2023-12-29T15:38:36.447Z,93332.16
2023-12-29T15:40:09.146Z,93333.56
2023-12-29T15:41:41.252Z,93322.59
2023-12-29T15:43:12.947Z,93322.50
2023-12-29T15:44:44.944Z,93321.69
2023-12-29T15:46:17.261Z,93325.94
2023-12-29T15:47:48.908Z,93329.53
2023-12-29T15:49:20.736Z,93326.84
2023-12-29T15:50:52.533Z,93325.22
2023-12-29T15:52:24.103Z,93329.00
2023-12-29T15:53:56.877Z,93324.72
2023-12-29T15:55:29.230Z,93320.75
2023-12-29T15:57:01.281Z,93329.72
2023-12-29T15:58:33.244Z,93328.69
2023-12-29T16:00:07.041Z,93336.25
2023-12-29T16:01:38.966Z,93333.56
2023-12-29T16:03:10.748Z,93333.56
2023-12-29T16:04:42.395Z,93335.66
2023-12-29T16:06:20.785Z,93338.06
2023-12-29T16:07:52.954Z,93342.44
2023-12-29T16:09:24.531Z,93341.72
2023-12-29T16:10:56.598Z,93335.63
2023-12-29T16:12:28.117Z,93339.72
2023-12-29T16:13:59.810Z,93343.50
2023-12-29T16:15:31.631Z,93352.16
2023-12-29T16:17:03.391Z,93347.66
2023-12-29T16:18:35.028Z,93348.25
2023-12-29T16:20:07.810Z,93346.44
2023-12-29T16:21:43.327Z,93349.19
2023-12-29T16:23:15.665Z,93347.91
2023-12-29T16:24:50.517Z,93345.81
2023-12-29T16:26:31.037Z,93341.50
2023-12-29T16:28:07.396Z,93344.31
2023-12-29T16:29:39.827Z,93347.28
2023-12-29T16:31:11.770Z,93349.16
2023-12-29T16:32:43.652Z,93352.94
2023-12-29T16:34:15.548Z,93352.19
2023-12-29T16:35:47.159Z,93348.00
2023-12-29T16:37:19.176Z,93353.53
2023-12-29T16:38:51.640Z,93350.69
2023-12-29T16:40:23.330Z,93347.00
2023-12-29T16:41:55.457Z,93353.44
2023-12-29T16:43:27.141Z,93354.59
2023-12-29T16:44:58.717Z,93353.59
2023-12-29T16:46:30.417Z,93353.94
2023-12-29T16:48:04.165Z,93360.41
2023-12-29T16:49:36.200Z,93366.88
2023-12-29T16:51:13.973Z,93354.03
2023-12-29T16:52:45.717Z,93359.69
2023-12-29T16:54:17.589Z,93362.13
2023-12-29T16:55:49.664Z,93368.38
2023-12-29T16:57:21.794Z,93365.47
2023-12-29T16:58:53.859Z,93362.25
2023-12-29T17:00:25.823Z,93363.84
2023-12-29T17:01:57.690Z,93364.94
2023-12-29T17:03:30.912Z,93377.03
2023-12-29T17:05:02.712Z,93363.41
2023-12-29T17:06:34.639Z,93369.34
2023-12-29T17:08:08.690Z,93363.47
2023-12-29T17:09:46.621Z,93365.13
2023-12-29T17:11:18.312Z,93361.97
2023-12-29T17:12:53.181Z,93360.16
2023-12-29T17:14:24.961Z,93363.41
2023-12-29T17:15:56.699Z,93365.28
2023-12-29T17:17:28.336Z,93378.72
2023-12-29T17:19:00.101Z,93365.41
2023-12-29T17:20:32.127Z,93371.09
2023-12-29T17:22:04.800Z,93364.47
2023-12-29T17:23:36.508Z,93371.53
2023-12-29T17:25:08.388Z,93364.41
2023-12-29T17:26:40.068Z,93365.59
2023-12-29T17:28:11.824Z,93364.28
2023-12-29T17:29:43.442Z,93361.44
2023-12-29T17:31:15.462Z,93361.19
2023-12-29T17:32:47.527Z,93366.84
2023-12-29T17:34:19.423Z,93370.31
2023-12-29T17:35:54.269Z,93368.13
2023-12-29T17:37:29.578Z,93371.06
2023-12-29T17:39:02.227Z,93364.09
2023-12-29T17:40:33.895Z,93372.41
2023-12-29T17:42:07.196Z,93366.25
2023-12-29T17:43:38.867Z,93376.47
2023-12-29T17:45:10.579Z,93371.69
2023-12-29T17:46:42.485Z,93366.84
2023-12-29T17:48:15.121Z,93374.88
2023-12-29T17:49:46.919Z,93371.69
2023-12-29T17:51:22.308Z,93371.41
2023-12-29T17:52:54.032Z,93377.25
2023-12-29T17:54:25.879Z,93377.56
2023-12-29T17:55:57.508Z,93366.59
2023-12-29T17:57:29.233Z,93377.31
2023-12-29T17:59:01.027Z,93371.72
2023-12-29T18:00:32.797Z,93371.50
2023-12-29T18:02:04.820Z,93369.88
2023-12-29T18:03:36.687Z,93369.63
2023-12-29T18:05:08.603Z,93376.88
2023-12-29T18:06:44.183Z,93373.13
2023-12-29T18:08:19.569Z,93378.47
2023-12-29T18:09:51.670Z,93377.94
2023-12-29T18:11:23.450Z,93379.03
2023-12-29T18:12:55.140Z,93380.09
2023-12-29T18:14:27.955Z,93380.69
2023-12-29T18:16:00.515Z,93379.63
2023-12-29T18:17:35.318Z,93380.72
2023-12-29T18:19:07.529Z,93386.13
2023-12-29T18:20:39.197Z,93382.94
2023-12-29T18:22:12.683Z,93380.78
2023-12-29T18:23:44.597Z,93388.88
2023-12-29T18:25:16.315Z,93391.28
2023-12-29T18:26:47.909Z,93391.84
2023-12-29T18:28:19.554Z,93390.81
2023-12-29T18:29:51.209Z,93385.22
2023-12-29T18:31:25.592Z,93385.47
2023-12-29T18:32:57.495Z,93388.44
2023-12-29T18:34:29.759Z,93397.53
2023-12-29T18:36:05.246Z,93396.22
2023-12-29T18:37:37.558Z,93400.25
2023-12-29T18:39:09.857Z,93400.25
2023-12-29T18:40:41.550Z,93393.59
2023-12-29T18:42:13.566Z,93398.69
2023-12-29T18:43:45.267Z,93408.59
2023-12-29T18:45:17.624Z,93411.06
2023-12-29T18:46:49.340Z,93412.63
2023-12-29T18:48:21.623Z,93407.81
2023-12-29T18:49:54.219Z,93410.75